EDT,Max TemperatureF,Mean TemperatureF,Min TemperatureF,Max Dew PointF,MeanDew PointF,Min DewpointF,Max Humidity, Mean Humidity, Min Humidity, Max Sea Level PressureIn, Mean Sea Level PressureIn, Min Sea Level PressureIn, Max VisibilityMiles, Mean VisibilityMiles, Min VisibilityMiles, Max Wind SpeedMPH, Mean Wind SpeedMPH, Max Gust SpeedMPH,PrecipitationIn, CloudCover, Events, WindDirDegrees
2013-5-1,76,60,43,40,36,31,80,48,21,30.44,30.41,30.35,10,10,10,10,6,16,0.00,2,,111
2013-5-2,66,54,42,39,31,18,80,47,19,30.58,30.51,30.45,10,10,10,17,9,23,0.00,3,,84
2013-5-3,68,52,35,33,30,25,79,46,24,30.61,30.51,30.41,10,10,10,14,5,20,0.00,0,,83
2013-5-4,71,56,40,32,29,25,65,38,22,30.42,30.31,30.21,10,10,10,12,6,17,0.00,0,,140
2013-5-5,80,61,42,37,33,29,68,37,18,30.21,30.14,30.06,10,10,10,15,7,22,0.00,2,,172
2013-5-6,82,66,49,40,36,31,66,38,16,30.12,30.05,29.96,10,10,10,21,9,28,0.00,1,,186
2013-5-7,82,66,49,41,36,29,69,37,16,30.11,30.00,29.93,10,10,10,24,9,31,0.00,2,,269
2013-5-8,81,67,52,47,38,32,60,37,21,30.21,30.12,30.05,10,10,10,21,10,29,0.00,0,,142
2013-5-9,64,59,53,57,54,48,100,86,67,30.08,29.97,29.87,10,10,3,17,8,25,0.07,7,Rain,164
2013-5-10,57,52,46,55,49,40,100,84,62,30.02,29.93,29.85,10,10,4,22,9,26,0.01,6,,325
2013-5-11,53,50,46,52,48,40,100,95,77,29.99,29.77,29.60,10,4,0,22,12,28,0.76,8,Fog-Rain,128
2013-5-12,56,50,44,54,48,37,100,90,67,29.65,29.57,29.51,10,8,1,17,7,23,0.33,8,Rain,225
2013-5-13,49,42,35,34,28,25,76,59,42,29.95,29.74,29.58,10,10,10,24,11,36,0.00,5,,226
2013-5-14,50,41,31,32,29,27,92,63,43,29.99,29.96,29.94,10,10,10,14,6,20,0.00,3,,306
2013-5-15,61,46,31,36,28,22,82,49,23,29.93,29.79,29.64,10,10,10,17,9,24,0.01,1,Rain,233
2013-5-16,52,46,39,48,44,36,100,91,76,29.76,29.57,29.52,10,7,0,21,10,28,0.32,8,Fog-Rain,244
2013-5-17,51,44,37,39,35,32,89,74,48,30.22,29.98,29.75,10,10,8,22,14,29,T,7,Rain,343
2013-5-18,56,44,31,32,29,26,92,61,34,30.36,30.31,30.23,10,10,8,14,6,21,T,1,,26
2013-5-19,60,46,32,37,30,23,89,59,25,30.41,30.31,30.16,10,10,10,13,7,17,0.00,2,,120
2013-5-20,53,49,44,52,48,40,100,94,68,30.14,29.99,29.93,10,4,0,17,9,21,0.28,7,Fog-Rain,184
2013-5-21,61,52,43,50,46,41,100,87,55,30.04,30.00,29.97,10,5,0,8,3,13,0.00,6,Fog,271
2013-5-22,51,49,46,49,47,39,100,91,68,30.01,29.96,29.88,10,6,0,18,10,23,0.08,7,Fog-Rain,134
2013-5-23,60,54,47,59,52,46,100,97,88,29.87,29.77,29.72,10,4,0,21,11,30,0.71,8,Fog-Rain,152
2013-5-24,54,49,43,55,48,41,100,96,89,29.98,29.79,29.70,10,6,1,23,12,32,0.59,8,Rain,337
2013-5-25,43,41,39,41,39,37,100,91,81,30.06,29.99,29.88,10,7,2,22,12,31,1.10,8,Rain,20
2013-5-26,52,46,39,47,42,37,100,93,82,29.88,29.77,29.72,10,6,1,21,11,29,0.52,8,Rain,6
2013-5-27,50,44,37,37,35,32,93,77,56,30.12,29.94,29.81,10,10,7,23,12,32,0.01,7,Rain,320
2013-5-28,66,49,32,35,32,27,92,54,25,30.23,30.19,30.13,10,10,10,13,4,18,0.00,0,,12
2013-5-29,70,56,42,54,44,31,100,70,29,30.21,30.08,29.95,10,9,4,22,12,31,0.20,4,Rain,138
2013-5-30,71,62,52,60,55,51,100,88,61,29.95,29.92,29.89,10,6,0,15,6,17,0.04,6,Fog-Rain,210
2013-5-31,84,72,59,68,62,56,100,86,49,29.94,29.86,29.76,10,6,0,31,8,41,0.66,6,Fog-Rain-Thunderstorm,262